sensor_id;sensor_type;location;lat;lon;timestamp;temperature;humidity
14755;DHT22;7469;50.906;6.952;2023-08-31T00:00:04;13.80;99.90
14755;DHT22;7469;50.906;6.952;2023-08-31T00:02:33;13.80;99.90
14755;DHT22;7469;50.906;6.952;2023-08-31T00:05:01;13.90;99.90
14755;DHT22;7469;50.906;6.952;2023-08-31T00:07:29;13.80;99.90
14755;DHT22;7469;50.906;6.952;2023-08-31T00:09:57;13.80;99.90
14755;DHT22;7469;50.906;6.952;2023-08-31T00:12:26;13.80;99.90
14755;DHT22;7469;50.906;6.952;2023-08-31T00:14:55;13.80;99.90
14755;DHT22;7469;50.906;6.952;2023-08-31T00:17:23;13.80;99.90
14755;DHT22;7469;50.906;6.952;2023-08-31T00:19:51;13.80;99.90
14755;DHT22;7469;50.906;6.952;2023-08-31T00:22:19;13.80;99.90
14755;DHT22;7469;50.906;6.952;2023-08-31T00:24:47;13.80;99.90
14755;DHT22;7469;50.906;6.952;2023-08-31T00:27:15;13.80;99.90
14755;DHT22;7469;50.906;6.952;2023-08-31T00:29:45;13.80;99.90
14755;DHT22;7469;50.906;6.952;2023-08-31T00:32:16;13.80;99.90
14755;DHT22;7469;50.906;6.952;2023-08-31T00:34:45;13.80;99.90
14755;DHT22;7469;50.906;6.952;2023-08-31T00:37:13;13.90;99.90
14755;DHT22;7469;50.906;6.952;2023-08-31T00:39:41;13.80;99.90
14755;DHT22;7469;50.906;6.952;2023-08-31T00:42:10;13.80;99.90
14755;DHT22;7469;50.906;6.952;2023-08-31T00:44:38;13.80;99.90
14755;DHT22;7469;50.906;6.952;2023-08-31T00:47:07;13.80;99.90
14755;DHT22;7469;50.906;6.952;2023-08-31T00:49:35;13.80;99.90
14755;DHT22;7469;50.906;6.952;2023-08-31T00:52:04;13.80;99.90
14755;DHT22;7469;50.906;6.952;2023-08-31T00:54:32;13.80;99.90
14755;DHT22;7469;50.906;6.952;2023-08-31T00:57:00;13.80;99.90
14755;DHT22;7469;50.906;6.952;2023-08-31T00:59:30;13.80;99.90
14755;DHT22;7469;50.906;6.952;2023-08-31T01:02:03;13.80;99.90
14755;DHT22;7469;50.906;6.952;2023-08-31T01:04:41;13.80;99.90
14755;DHT22;7469;50.906;6.952;2023-08-31T01:07:20;13.80;99.90
14755;DHT22;7469;50.906;6.952;2023-08-31T01:09:57;13.90;99.90
14755;DHT22;7469;50.906;6.952;2023-08-31T01:12:32;13.90;99.90
14755;DHT22;7469;50.906;6.952;2023-08-31T01:15:04;13.90;99.90
14755;DHT22;7469;50.906;6.952;2023-08-31T01:17:38;14.00;99.90
14755;DHT22;7469;50.906;6.952;2023-08-31T01:20:11;14.00;99.90
14755;DHT22;7469;50.906;6.952;2023-08-31T01:22:46;14.00;99.90
14755;DHT22;7469;50.906;6.952;2023-08-31T01:25:16;14.00;99.90
14755;DHT22;7469;50.906;6.952;2023-08-31T01:27:44;14.00;99.90
14755;DHT22;7469;50.906;6.952;2023-08-31T01:30:13;14.00;99.90
14755;DHT22;7469;50.906;6.952;2023-08-31T01:32:43;14.00;99.90
14755;DHT22;7469;50.906;6.952;2023-08-31T01:35:14;14.00;99.90
14755;DHT22;7469;50.906;6.952;2023-08-31T01:37:47;14.00;99.90
14755;DHT22;7469;50.906;6.952;2023-08-31T01:40:20;14.00;99.90
14755;DHT22;7469;50.906;6.952;2023-08-31T01:42:50;13.90;99.90
14755;DHT22;7469;50.906;6.952;2023-08-31T01:45:20;13.90;99.90
14755;DHT22;7469;50.906;6.952;2023-08-31T01:47:49;13.90;99.90
14755;DHT22;7469;50.906;6.952;2023-08-31T01:50:17;13.80;99.90
14755;DHT22;7469;50.906;6.952;2023-08-31T01:52:45;13.80;99.90
14755;DHT22;7469;50.906;6.952;2023-08-31T01:55:13;13.80;99.90
14755;DHT22;7469;50.906;6.952;2023-08-31T01:57:43;13.70;99.90
14755;DHT22;7469;50.906;6.952;2023-08-31T02:00:13;13.70;99.90
14755;DHT22;7469;50.906;6.952;2023-08-31T02:02:42;13.60;99.90
14755;DHT22;7469;50.906;6.952;2023-08-31T02:05:10;13.60;99.90
14755;DHT22;7469;50.906;6.952;2023-08-31T02:07:38;13.60;99.90
14755;DHT22;7469;50.906;6.952;2023-08-31T02:10:07;13.50;99.90
14755;DHT22;7469;50.906;6.952;2023-08-31T02:12:35;13.50;99.90
14755;DHT22;7469;50.906;6.952;2023-08-31T02:15:06;13.50;99.90
14755;DHT22;7469;50.906;6.952;2023-08-31T02:17:34;13.50;99.90
14755;DHT22;7469;50.906;6.952;2023-08-31T02:20:03;13.50;99.90
14755;DHT22;7469;50.906;6.952;2023-08-31T02:22:34;13.40;99.90
14755;DHT22;7469;50.906;6.952;2023-08-31T02:25:02;13.40;99.90
14755;DHT22;7469;50.906;6.952;2023-08-31T02:27:30;13.40;99.90
14755;DHT22;7469;50.906;6.952;2023-08-31T02:29:58;13.50;99.90
14755;DHT22;7469;50.906;6.952;2023-08-31T02:32:28;13.50;99.90
14755;DHT22;7469;50.906;6.952;2023-08-31T02:34:56;13.50;99.90
14755;DHT22;7469;50.906;6.952;2023-08-31T02:37:24;13.50;99.90
14755;DHT22;7469;50.906;6.952;2023-08-31T02:39:53;13.50;99.90
14755;DHT22;7469;50.906;6.952;2023-08-31T02:42:21;13.40;99.90
14755;DHT22;7469;50.906;6.952;2023-08-31T02:44:52;13.50;99.90
14755;DHT22;7469;50.906;6.952;2023-08-31T02:47:20;13.40;99.90
14755;DHT22;7469;50.906;6.952;2023-08-31T02:49:50;13.40;99.90
14755;DHT22;7469;50.906;6.952;2023-08-31T02:52:17;13.40;99.90
14755;DHT22;7469;50.906;6.952;2023-08-31T02:54:45;13.30;99.90
14755;DHT22;7469;50.906;6.952;2023-08-31T02:57:13;13.30;99.90
14755;DHT22;7469;50.906;6.952;2023-08-31T02:59:41;13.30;99.90
14755;DHT22;7469;50.906;6.952;2023-08-31T03:02:09;13.30;99.90
14755;DHT22;7469;50.906;6.952;2023-08-31T03:04:37;13.30;99.90
14755;DHT22;7469;50.906;6.952;2023-08-31T03:07:07;13.30;99.90
14755;DHT22;7469;50.906;6.952;2023-08-31T03:09:35;13.30;99.90
14755;DHT22;7469;50.906;6.952;2023-08-31T03:12:05;13.30;99.90
14755;DHT22;7469;50.906;6.952;2023-08-31T03:14:33;13.30;99.90
14755;DHT22;7469;50.906;6.952;2023-08-31T03:17:01;13.20;99.90
14755;DHT22;7469;50.906;6.952;2023-08-31T03:19:29;13.20;99.90
14755;DHT22;7469;50.906;6.952;2023-08-31T03:21:57;13.20;99.90
14755;DHT22;7469;50.906;6.952;2023-08-31T03:24:27;13.10;99.90
14755;DHT22;7469;50.906;6.952;2023-08-31T03:26:55;13.10;99.90
14755;DHT22;7469;50.906;6.952;2023-08-31T03:29:23;13.10;99.90
14755;DHT22;7469;50.906;6.952;2023-08-31T03:31:50;13.10;99.90
14755;DHT22;7469;50.906;6.952;2023-08-31T03:34:18;13.10;99.90
14755;DHT22;7469;50.906;6.952;2023-08-31T03:36:46;13.10;99.90
14755;DHT22;7469;50.906;6.952;2023-08-31T03:39:14;13.10;99.90
14755;DHT22;7469;50.906;6.952;2023-08-31T03:41:43;13.20;99.90
14755;DHT22;7469;50.906;6.952;2023-08-31T03:44:11;13.20;99.90
14755;DHT22;7469;50.906;6.952;2023-08-31T03:46:39;13.20;99.90
14755;DHT22;7469;50.906;6.952;2023-08-31T03:49:07;13.20;99.90
14755;DHT22;7469;50.906;6.952;2023-08-31T03:51:35;13.20;99.90
14755;DHT22;7469;50.906;6.952;2023-08-31T03:54:03;13.20;99.90
14755;DHT22;7469;50.906;6.952;2023-08-31T03:56:31;13.30;99.90
14755;DHT22;7469;50.906;6.952;2023-08-31T03:59:02;13.30;99.90
14755;DHT22;7469;50.906;6.952;2023-08-31T04:01:31;13.30;99.90
14755;DHT22;7469;50.906;6.952;2023-08-31T04:03:59;13.30;99.90
14755;DHT22;7469;50.906;6.952;2023-08-31T04:06:27;13.30;99.90
14755;DHT22;7469;50.906;6.952;2023-08-31T04:08:55;13.40;99.90
14755;DHT22;7469;50.906;6.952;2023-08-31T04:11:24;13.40;99.90
14755;DHT22;7469;50.906;6.952;2023-08-31T04:13:52;13.40;99.90
14755;DHT22;7469;50.906;6.952;2023-08-31T04:16:22;13.50;99.90
14755;DHT22;7469;50.906;6.952;2023-08-31T04:18:50;13.40;99.90
14755;DHT22;7469;50.906;6.952;2023-08-31T04:21:18;13.50;99.90
14755;DHT22;7469;50.906;6.952;2023-08-31T04:23:46;13.40;99.90
14755;DHT22;7469;50.906;6.952;2023-08-31T04:26:14;13.40;99.90
14755;DHT22;7469;50.906;6.952;2023-08-31T04:28:44;13.40;99.90
14755;DHT22;7469;50.906;6.952;2023-08-31T04:31:12;13.30;99.90
14755;DHT22;7469;50.906;6.952;2023-08-31T04:33:41;13.30;99.90
14755;DHT22;7469;50.906;6.952;2023-08-31T04:36:09;13.30;99.90
14755;DHT22;7469;50.906;6.952;2023-08-31T04:38:37;13.20;99.90
14755;DHT22;7469;50.906;6.952;2023-08-31T04:41:05;13.20;99.90
14755;DHT22;7469;50.906;6.952;2023-08-31T04:43:33;13.20;99.90
14755;DHT22;7469;50.906;6.952;2023-08-31T04:46:01;13.20;99.90
14755;DHT22;7469;50.906;6.952;2023-08-31T04:48:30;13.20;99.90
14755;DHT22;7469;50.906;6.952;2023-08-31T04:50:59;13.20;99.90
14755;DHT22;7469;50.906;6.952;2023-08-31T04:53:27;13.20;99.90
14755;DHT22;7469;50.906;6.952;2023-08-31T04:55:56;13.20;99.90
14755;DHT22;7469;50.906;6.952;2023-08-31T04:58:24;13.10;99.90
14755;DHT22;7469;50.906;6.952;2023-08-31T05:00:52;13.10;99.90
14755;DHT22;7469;50.906;6.952;2023-08-31T05:03:20;13.00;99.90
14755;DHT22;7469;50.906;6.952;2023-08-31T05:05:48;13.10;99.90
14755;DHT22;7469;50.906;6.952;2023-08-31T05:08:17;13.00;99.90
14755;DHT22;7469;50.906;6.952;2023-08-31T05:10:45;13.00;99.90
14755;DHT22;7469;50.906;6.952;2023-08-31T05:13:13;12.90;99.90
14755;DHT22;7469;50.906;6.952;2023-08-31T05:15:41;12.80;99.90
14755;DHT22;7469;50.906;6.952;2023-08-31T05:18:09;12.70;99.90
14755;DHT22;7469;50.906;6.952;2023-08-31T05:20:37;12.70;99.90
14755;DHT22;7469;50.906;6.952;2023-08-31T05:23:05;12.70;99.90
14755;DHT22;7469;50.906;6.952;2023-08-31T05:25:34;12.70;99.90
14755;DHT22;7469;50.906;6.952;2023-08-31T05:28:03;12.70;99.90
14755;DHT22;7469;50.906;6.952;2023-08-31T05:30:31;12.70;99.90
14755;DHT22;7469;50.906;6.952;2023-08-31T05:33:00;12.70;99.90
14755;DHT22;7469;50.906;6.952;2023-08-31T05:35:28;12.70;99.90
14755;DHT22;7469;50.906;6.952;2023-08-31T05:37:57;12.70;99.90
14755;DHT22;7469;50.906;6.952;2023-08-31T05:40:25;12.70;99.90
14755;DHT22;7469;50.906;6.952;2023-08-31T05:42:54;12.70;99.90
14755;DHT22;7469;50.906;6.952;2023-08-31T05:45:22;12.70;99.90
14755;DHT22;7469;50.906;6.952;2023-08-31T05:47:50;12.80;99.90
14755;DHT22;7469;50.906;6.952;2023-08-31T05:50:18;12.80;99.90
14755;DHT22;7469;50.906;6.952;2023-08-31T05:52:46;12.80;99.90
14755;DHT22;7469;50.906;6.952;2023-08-31T05:55:14;12.80;99.90
14755;DHT22;7469;50.906;6.952;2023-08-31T05:57:42;12.90;99.90
14755;DHT22;7469;50.906;6.952;2023-08-31T06:00:12;12.90;99.90
14755;DHT22;7469;50.906;6.952;2023-08-31T06:02:40;12.90;99.90
14755;DHT22;7469;50.906;6.952;2023-08-31T06:05:09;12.90;99.90
14755;DHT22;7469;50.906;6.952;2023-08-31T06:07:39;13.00;99.90
14755;DHT22;7469;50.906;6.952;2023-08-31T06:10:07;13.10;99.90
14755;DHT22;7469;50.906;6.952;2023-08-31T06:12:35;13.10;99.90
14755;DHT22;7469;50.906;6.952;2023-08-31T06:15:04;13.20;99.90
14755;DHT22;7469;50.906;6.952;2023-08-31T06:17:33;13.30;99.90
14755;DHT22;7469;50.906;6.952;2023-08-31T06:20:02;13.40;99.90
14755;DHT22;7469;50.906;6.952;2023-08-31T06:22:32;13.40;99.90
14755;DHT22;7469;50.906;6.952;2023-08-31T06:25:00;13.50;99.90
14755;DHT22;7469;50.906;6.952;2023-08-31T06:27:29;13.60;99.90
14755;DHT22;7469;50.906;6.952;2023-08-31T06:29:57;13.60;99.90
14755;DHT22;7469;50.906;6.952;2023-08-31T06:32:25;13.70;99.90
14755;DHT22;7469;50.906;6.952;2023-08-31T06:34:55;13.70;99.90
14755;DHT22;7469;50.906;6.952;2023-08-31T06:37:23;13.80;99.90
14755;DHT22;7469;50.906;6.952;2023-08-31T06:39:51;13.80;99.90
14755;DHT22;7469;50.906;6.952;2023-08-31T06:42:19;13.90;99.90
14755;DHT22;7469;50.906;6.952;2023-08-31T06:44:47;13.90;99.90
14755;DHT22;7469;50.906;6.952;2023-08-31T06:47:15;14.00;99.90
14755;DHT22;7469;50.906;6.952;2023-08-31T06:49:44;14.10;99.90
14755;DHT22;7469;50.906;6.952;2023-08-31T06:52:13;14.10;99.90
14755;DHT22;7469;50.906;6.952;2023-08-31T06:54:57;14.10;99.90
14755;DHT22;7469;50.906;6.952;2023-08-31T06:57:27;14.20;99.90
14755;DHT22;7469;50.906;6.952;2023-08-31T06:59:55;14.20;99.90
14755;DHT22;7469;50.906;6.952;2023-08-31T07:02:25;14.30;99.90
14755;DHT22;7469;50.906;6.952;2023-08-31T07:04:54;14.30;99.90
14755;DHT22;7469;50.906;6.952;2023-08-31T07:07:23;14.40;99.90
14755;DHT22;7469;50.906;6.952;2023-08-31T07:09:52;14.40;99.90
14755;DHT22;7469;50.906;6.952;2023-08-31T07:12:21;14.50;99.90
14755;DHT22;7469;50.906;6.952;2023-08-31T07:14:49;14.60;99.90
14755;DHT22;7469;50.906;6.952;2023-08-31T07:17:18;14.60;99.90
14755;DHT22;7469;50.906;6.952;2023-08-31T07:19:46;14.70;99.90
14755;DHT22;7469;50.906;6.952;2023-08-31T07:22:14;14.70;99.90
14755;DHT22;7469;50.906;6.952;2023-08-31T07:24:44;14.80;99.90
14755;DHT22;7469;50.906;6.952;2023-08-31T07:27:12;14.80;99.90
14755;DHT22;7469;50.906;6.952;2023-08-31T07:29:40;14.90;99.90
14755;DHT22;7469;50.906;6.952;2023-08-31T07:32:08;14.90;99.90
14755;DHT22;7469;50.906;6.952;2023-08-31T07:34:36;15.00;99.90
14755;DHT22;7469;50.906;6.952;2023-08-31T07:37:03;15.10;99.90
14755;DHT22;7469;50.906;6.952;2023-08-31T07:39:32;15.10;99.90
14755;DHT22;7469;50.906;6.952;2023-08-31T07:42:02;15.20;99.90
14755;DHT22;7469;50.906;6.952;2023-08-31T07:44:30;15.30;99.90
14755;DHT22;7469;50.906;6.952;2023-08-31T07:46:58;15.30;99.90
14755;DHT22;7469;50.906;6.952;2023-08-31T07:49:26;15.40;99.90
14755;DHT22;7469;50.906;6.952;2023-08-31T07:51:54;15.50;99.90
14755;DHT22;7469;50.906;6.952;2023-08-31T07:54:22;15.60;99.90
14755;DHT22;7469;50.906;6.952;2023-08-31T07:56:50;15.70;99.90
14755;DHT22;7469;50.906;6.952;2023-08-31T07:59:19;15.90;99.90
14755;DHT22;7469;50.906;6.952;2023-08-31T08:01:48;16.00;99.90
14755;DHT22;7469;50.906;6.952;2023-08-31T08:04:16;16.10;99.90
14755;DHT22;7469;50.906;6.952;2023-08-31T08:06:46;16.20;99.90
14755;DHT22;7469;50.906;6.952;2023-08-31T08:09:14;16.30;99.90
14755;DHT22;7469;50.906;6.952;2023-08-31T08:11:44;16.40;99.90
14755;DHT22;7469;50.906;6.952;2023-08-31T08:14:12;16.50;99.90
14755;DHT22;7469;50.906;6.952;2023-08-31T08:16:41;16.50;99.90
14755;DHT22;7469;50.906;6.952;2023-08-31T08:19:09;16.60;99.90
14755;DHT22;7469;50.906;6.952;2023-08-31T08:21:37;16.70;99.90
14755;DHT22;7469;50.906;6.952;2023-08-31T08:24:06;16.80;99.90
14755;DHT22;7469;50.906;6.952;2023-08-31T08:26:34;16.90;99.90
14755;DHT22;7469;50.906;6.952;2023-08-31T08:29:01;17.00;99.90
14755;DHT22;7469;50.906;6.952;2023-08-31T08:31:30;17.10;99.90
14755;DHT22;7469;50.906;6.952;2023-08-31T08:33:59;17.20;99.90
14755;DHT22;7469;50.906;6.952;2023-08-31T08:36:27;17.30;99.90
14755;DHT22;7469;50.906;6.952;2023-08-31T08:38:55;17.40;99.90
14755;DHT22;7469;50.906;6.952;2023-08-31T08:41:24;17.40;99.90
14755;DHT22;7469;50.906;6.952;2023-08-31T08:43:52;17.50;99.90
14755;DHT22;7469;50.906;6.952;2023-08-31T08:46:21;17.50;99.90
14755;DHT22;7469;50.906;6.952;2023-08-31T08:48:49;17.60;99.90
14755;DHT22;7469;50.906;6.952;2023-08-31T08:51:19;17.60;99.90
14755;DHT22;7469;50.906;6.952;2023-08-31T08:53:48;17.70;99.90
14755;DHT22;7469;50.906;6.952;2023-08-31T08:56:18;17.80;99.90
14755;DHT22;7469;50.906;6.952;2023-08-31T08:58:46;17.90;99.90
14755;DHT22;7469;50.906;6.952;2023-08-31T09:01:14;18.00;99.90
14755;DHT22;7469;50.906;6.952;2023-08-31T09:03:44;18.20;99.90
14755;DHT22;7469;50.906;6.952;2023-08-31T09:06:12;18.30;99.90
14755;DHT22;7469;50.906;6.952;2023-08-31T09:08:41;18.40;99.90
14755;DHT22;7469;50.906;6.952;2023-08-31T09:11:19;18.50;99.90
14755;DHT22;7469;50.906;6.952;2023-08-31T09:13:49;18.70;99.90
14755;DHT22;7469;50.906;6.952;2023-08-31T09:16:24;18.70;99.90
14755;DHT22;7469;50.906;6.952;2023-08-31T09:18:53;18.80;99.90
14755;DHT22;7469;50.906;6.952;2023-08-31T09:21:22;18.90;99.90
14755;DHT22;7469;50.906;6.952;2023-08-31T09:23:57;18.90;99.90
14755;DHT22;7469;50.906;6.952;2023-08-31T09:26:25;19.00;99.90
14755;DHT22;7469;50.906;6.952;2023-08-31T09:28:53;19.00;99.90
14755;DHT22;7469;50.906;6.952;2023-08-31T09:31:29;19.10;99.90
14755;DHT22;7469;50.906;6.952;2023-08-31T09:33:58;19.20;99.90
14755;DHT22;7469;50.906;6.952;2023-08-31T09:36:26;19.40;99.90
14755;DHT22;7469;50.906;6.952;2023-08-31T09:38:58;19.50;99.90
14755;DHT22;7469;50.906;6.952;2023-08-31T09:41:26;19.60;99.90
14755;DHT22;7469;50.906;6.952;2023-08-31T09:43:54;19.80;99.90
14755;DHT22;7469;50.906;6.952;2023-08-31T09:46:22;20.00;99.90
14755;DHT22;7469;50.906;6.952;2023-08-31T09:48:51;20.10;99.90
14755;DHT22;7469;50.906;6.952;2023-08-31T09:51:22;20.40;99.90
14755;DHT22;7469;50.906;6.952;2023-08-31T09:53:55;20.70;99.90
14755;DHT22;7469;50.906;6.952;2023-08-31T09:56:29;21.10;99.90
14755;DHT22;7469;50.906;6.952;2023-08-31T09:58:59;21.90;99.90
14755;DHT22;7469;50.906;6.952;2023-08-31T10:01:27;22.60;99.90
14755;DHT22;7469;50.906;6.952;2023-08-31T10:03:56;23.40;99.90
14755;DHT22;7469;50.906;6.952;2023-08-31T10:06:25;24.00;99.90
14755;DHT22;7469;50.906;6.952;2023-08-31T10:08:54;23.90;99.90
14755;DHT22;7469;50.906;6.952;2023-08-31T10:11:23;23.10;98.50
14755;DHT22;7469;50.906;6.952;2023-08-31T10:13:55;22.70;99.00
14755;DHT22;7469;50.906;6.952;2023-08-31T10:16:25;23.00;99.30
14755;DHT22;7469;50.906;6.952;2023-08-31T10:18:55;23.50;98.30
14755;DHT22;7469;50.906;6.952;2023-08-31T10:21:23;23.30;97.40
14755;DHT22;7469;50.906;6.952;2023-08-31T10:23:51;23.60;97.40
14755;DHT22;7469;50.906;6.952;2023-08-31T10:26:26;24.10;96.80
14755;DHT22;7469;50.906;6.952;2023-08-31T10:28:56;24.20;96.30
14755;DHT22;7469;50.906;6.952;2023-08-31T10:31:29;24.10;95.60
14755;DHT22;7469;50.906;6.952;2023-08-31T10:33:58;23.80;94.30
14755;DHT22;7469;50.906;6.952;2023-08-31T10:36:38;23.40;94.00
14755;DHT22;7469;50.906;6.952;2023-08-31T10:39:10;23.00;94.00
14755;DHT22;7469;50.906;6.952;2023-08-31T10:41:39;22.90;93.60
14755;DHT22;7469;50.906;6.952;2023-08-31T10:44:24;22.80;93.80
14755;DHT22;7469;50.906;6.952;2023-08-31T10:46:52;22.50;94.10
14755;DHT22;7469;50.906;6.952;2023-08-31T10:49:21;22.30;94.50
14755;DHT22;7469;50.906;6.952;2023-08-31T10:51:53;22.30;94.80
14755;DHT22;7469;50.906;6.952;2023-08-31T10:54:23;22.70;94.40
14755;DHT22;7469;50.906;6.952;2023-08-31T10:56:53;23.20;93.80
14755;DHT22;7469;50.906;6.952;2023-08-31T10:59:22;23.60;93.20
14755;DHT22;7469;50.906;6.952;2023-08-31T11:01:56;23.90;92.50
14755;DHT22;7469;50.906;6.952;2023-08-31T11:04:25;23.90;92.50
14755;DHT22;7469;50.906;6.952;2023-08-31T11:07:13;24.00;92.40
14755;DHT22;7469;50.906;6.952;2023-08-31T11:09:42;24.50;91.80
14755;DHT22;7469;50.906;6.952;2023-08-31T11:12:13;24.70;91.00
14755;DHT22;7469;50.906;6.952;2023-08-31T11:14:41;24.90;90.40
14755;DHT22;7469;50.906;6.952;2023-08-31T11:17:10;25.00;89.90
14755;DHT22;7469;50.906;6.952;2023-08-31T11:19:38;24.80;88.90
14755;DHT22;7469;50.906;6.952;2023-08-31T11:22:06;24.50;90.20
14755;DHT22;7469;50.906;6.952;2023-08-31T11:24:36;24.20;90.40
14755;DHT22;7469;50.906;6.952;2023-08-31T11:27:07;23.70;91.00
14755;DHT22;7469;50.906;6.952;2023-08-31T11:29:37;23.20;91.60
14755;DHT22;7469;50.906;6.952;2023-08-31T11:32:05;22.80;92.30
14755;DHT22;7469;50.906;6.952;2023-08-31T11:34:35;22.40;93.30
14755;DHT22;7469;50.906;6.952;2023-08-31T11:37:04;21.70;94.70
14755;DHT22;7469;50.906;6.952;2023-08-31T11:39:32;21.30;96.30
14755;DHT22;7469;50.906;6.952;2023-08-31T11:42:00;21.00;98.10
14755;DHT22;7469;50.906;6.952;2023-08-31T11:44:28;20.70;99.70
14755;DHT22;7469;50.906;6.952;2023-08-31T11:46:56;20.30;99.90
14755;DHT22;7469;50.906;6.952;2023-08-31T11:49:26;19.90;99.90
14755;DHT22;7469;50.906;6.952;2023-08-31T11:51:56;19.50;99.90
14755;DHT22;7469;50.906;6.952;2023-08-31T11:54:25;19.30;99.90
14755;DHT22;7469;50.906;6.952;2023-08-31T11:56:53;19.20;99.90
14755;DHT22;7469;50.906;6.952;2023-08-31T11:59:21;19.00;99.90
14755;DHT22;7469;50.906;6.952;2023-08-31T12:01:50;18.80;99.90
14755;DHT22;7469;50.906;6.952;2023-08-31T12:04:20;18.70;99.90
14755;DHT22;7469;50.906;6.952;2023-08-31T12:06:51;18.70;99.90
14755;DHT22;7469;50.906;6.952;2023-08-31T12:09:21;18.90;99.90
14755;DHT22;7469;50.906;6.952;2023-08-31T12:11:50;19.10;99.90
14755;DHT22;7469;50.906;6.952;2023-08-31T12:14:20;19.40;99.90
14755;DHT22;7469;50.906;6.952;2023-08-31T12:16:48;19.60;99.90
14755;DHT22;7469;50.906;6.952;2023-08-31T12:19:17;19.70;99.90
14755;DHT22;7469;50.906;6.952;2023-08-31T12:21:46;19.70;99.90
14755;DHT22;7469;50.906;6.952;2023-08-31T12:24:14;19.80;99.90
14755;DHT22;7469;50.906;6.952;2023-08-31T12:26:45;19.80;99.90
14755;DHT22;7469;50.906;6.952;2023-08-31T12:29:13;19.80;99.90
14755;DHT22;7469;50.906;6.952;2023-08-31T12:31:41;19.90;99.90
14755;DHT22;7469;50.906;6.952;2023-08-31T12:34:10;19.90;99.90
14755;DHT22;7469;50.906;6.952;2023-08-31T12:36:38;20.00;99.90
14755;DHT22;7469;50.906;6.952;2023-08-31T12:39:07;20.00;99.90
14755;DHT22;7469;50.906;6.952;2023-08-31T12:41:36;20.00;99.90
14755;DHT22;7469;50.906;6.952;2023-08-31T12:44:06;20.00;99.90
14755;DHT22;7469;50.906;6.952;2023-08-31T12:46:35;19.80;99.90
14755;DHT22;7469;50.906;6.952;2023-08-31T12:49:03;19.70;99.90
14755;DHT22;7469;50.906;6.952;2023-08-31T12:51:31;19.70;99.90
14755;DHT22;7469;50.906;6.952;2023-08-31T12:53:59;19.60;99.90
14755;DHT22;7469;50.906;6.952;2023-08-31T12:56:27;19.60;99.90
14755;DHT22;7469;50.906;6.952;2023-08-31T12:58:55;19.70;99.90
14755;DHT22;7469;50.906;6.952;2023-08-31T13:01:24;19.90;99.90
14755;DHT22;7469;50.906;6.952;2023-08-31T13:03:52;20.20;99.90
14755;DHT22;7469;50.906;6.952;2023-08-31T13:06:20;20.60;99.90
14755;DHT22;7469;50.906;6.952;2023-08-31T13:08:51;20.80;99.90
14755;DHT22;7469;50.906;6.952;2023-08-31T13:11:18;21.00;99.90
14755;DHT22;7469;50.906;6.952;2023-08-31T13:13:50;21.10;99.90
14755;DHT22;7469;50.906;6.952;2023-08-31T13:16:19;21.20;99.90
14755;DHT22;7469;50.906;6.952;2023-08-31T13:18:52;21.10;99.90
14755;DHT22;7469;50.906;6.952;2023-08-31T13:21:20;21.20;99.90
14755;DHT22;7469;50.906;6.952;2023-08-31T13:23:50;21.20;99.90
14755;DHT22;7469;50.906;6.952;2023-08-31T13:26:18;21.20;99.90
14755;DHT22;7469;50.906;6.952;2023-08-31T13:28:46;21.20;99.90
14755;DHT22;7469;50.906;6.952;2023-08-31T13:31:14;21.20;99.90
14755;DHT22;7469;50.906;6.952;2023-08-31T13:33:42;21.20;99.90
14755;DHT22;7469;50.906;6.952;2023-08-31T13:36:11;21.10;99.90
14755;DHT22;7469;50.906;6.952;2023-08-31T13:38:39;21.10;99.90
14755;DHT22;7469;50.906;6.952;2023-08-31T13:41:07;21.00;99.90
14755;DHT22;7469;50.906;6.952;2023-08-31T13:43:35;20.90;99.90
14755;DHT22;7469;50.906;6.952;2023-08-31T13:46:03;20.90;99.90
14755;DHT22;7469;50.906;6.952;2023-08-31T13:48:32;20.70;99.90
14755;DHT22;7469;50.906;6.952;2023-08-31T13:51:00;20.70;99.90
14755;DHT22;7469;50.906;6.952;2023-08-31T13:53:29;20.70;99.90
14755;DHT22;7469;50.906;6.952;2023-08-31T13:55:57;20.80;99.90
14755;DHT22;7469;50.906;6.952;2023-08-31T13:58:25;21.10;99.90
14755;DHT22;7469;50.906;6.952;2023-08-31T14:00:53;21.20;99.90
14755;DHT22;7469;50.906;6.952;2023-08-31T14:03:21;21.50;99.90
14755;DHT22;7469;50.906;6.952;2023-08-31T14:05:50;21.60;99.90
14755;DHT22;7469;50.906;6.952;2023-08-31T14:08:18;21.50;99.90
14755;DHT22;7469;50.906;6.952;2023-08-31T14:10:47;21.50;99.90
14755;DHT22;7469;50.906;6.952;2023-08-31T14:13:15;21.40;99.90
14755;DHT22;7469;50.906;6.952;2023-08-31T14:15:46;21.50;99.90
14755;DHT22;7469;50.906;6.952;2023-08-31T14:18:14;21.70;99.90
14755;DHT22;7469;50.906;6.952;2023-08-31T14:20:43;21.70;99.90
14755;DHT22;7469;50.906;6.952;2023-08-31T14:23:11;21.70;99.90
14755;DHT22;7469;50.906;6.952;2023-08-31T14:25:39;21.80;99.90
14755;DHT22;7469;50.906;6.952;2023-08-31T14:28:08;22.00;99.90
14755;DHT22;7469;50.906;6.952;2023-08-31T14:30:37;22.20;99.90
14755;DHT22;7469;50.906;6.952;2023-08-31T14:33:05;22.30;99.90
14755;DHT22;7469;50.906;6.952;2023-08-31T14:35:36;22.40;99.90
14755;DHT22;7469;50.906;6.952;2023-08-31T14:38:04;22.50;99.90
14755;DHT22;7469;50.906;6.952;2023-08-31T14:40:33;22.50;99.90
14755;DHT22;7469;50.906;6.952;2023-08-31T14:43:03;22.50;99.90
14755;DHT22;7469;50.906;6.952;2023-08-31T14:45:33;22.50;99.80
14755;DHT22;7469;50.906;6.952;2023-08-31T14:48:01;22.50;99.30
14755;DHT22;7469;50.906;6.952;2023-08-31T14:50:30;22.60;99.30
14755;DHT22;7469;50.906;6.952;2023-08-31T14:52:58;22.50;98.70
14755;DHT22;7469;50.906;6.952;2023-08-31T14:55:26;22.30;99.10
14755;DHT22;7469;50.906;6.952;2023-08-31T14:57:53;22.30;99.40
14755;DHT22;7469;50.906;6.952;2023-08-31T15:00:21;22.30;99.40
14755;DHT22;7469;50.906;6.952;2023-08-31T15:02:51;22.30;98.90
14755;DHT22;7469;50.906;6.952;2023-08-31T15:05:19;22.40;98.10
14755;DHT22;7469;50.906;6.952;2023-08-31T15:07:47;22.30;96.90
14755;DHT22;7469;50.906;6.952;2023-08-31T15:10:15;22.20;96.40
14755;DHT22;7469;50.906;6.952;2023-08-31T15:12:44;22.00;96.30
14755;DHT22;7469;50.906;6.952;2023-08-31T15:15:14;21.90;96.50
14755;DHT22;7469;50.906;6.952;2023-08-31T15:17:44;21.80;96.60
14755;DHT22;7469;50.906;6.952;2023-08-31T15:20:13;21.70;96.80
14755;DHT22;7469;50.906;6.952;2023-08-31T15:22:41;21.60;97.50
14755;DHT22;7469;50.906;6.952;2023-08-31T15:25:09;21.50;97.40
14755;DHT22;7469;50.906;6.952;2023-08-31T15:27:37;21.40;97.60
14755;DHT22;7469;50.906;6.952;2023-08-31T15:30:07;21.40;97.70
14755;DHT22;7469;50.906;6.952;2023-08-31T15:32:36;21.40;98.00
14755;DHT22;7469;50.906;6.952;2023-08-31T15:35:04;21.40;97.70
14755;DHT22;7469;50.906;6.952;2023-08-31T15:37:34;21.50;98.00
14755;DHT22;7469;50.906;6.952;2023-08-31T15:40:02;21.40;98.10
14755;DHT22;7469;50.906;6.952;2023-08-31T15:42:31;21.40;98.30
14755;DHT22;7469;50.906;6.952;2023-08-31T15:45:01;21.30;98.50
14755;DHT22;7469;50.906;6.952;2023-08-31T15:47:29;21.30;98.30
14755;DHT22;7469;50.906;6.952;2023-08-31T15:49:57;21.20;98.40
14755;DHT22;7469;50.906;6.952;2023-08-31T15:52:25;21.20;98.70
14755;DHT22;7469;50.906;6.952;2023-08-31T15:54:55;21.10;98.80